Metar Aviation Weather Data YSDU Dubbo City Regional

18°C Temp
5°C Dewpoint
43% Humidity
Temperature
32 KM/H
20 MPH
17 KTS
110°
East South
East

Wind Speed
Clear
Conditions
Pressure 1022 (hPa) - 30.18 (in)
Visibility 6.2 (mi) - 10 (km)

Current Conditions
YSDU
Dubbo City Regional
Metar :YSDU 240730Z AUTO 11017KT 9999 // NCD 18/05 Q1022 RF00.0/000.0
Mon 24th September 17:30 pm

Dubbo City Regional
  Metar Aviation API Data Provided by https://www.checkwx.com/ PHP scripts by weather34.com ©2018